GTU weather

Georgetown Municipal Airport
Georgetown, Texas, United States

Public forecast

Using degrees Fahrenheit for public forecast. Weather courtesy of forecast.io.

METAR (pilot weather report)

Retrieved 2019/06/20 10:41 UTC (0 seconds ago):

KGTU 201041Z AUTO 11005KT 10SM OVC015 24/22 A2983 RMK AO2

TAF (pilot weather forecast)

Closest forecast is Robert Gray Army Air Field Airport, 24.6 nm (45.5 km) NNW. Retrieved 2019/06/20 08:09 UTC (2 hours ago):

TAF KGRK 200800Z 2008/2114 19009KT 9999 FEW030 SCT200 QNH2975INS BECMG 2010/2011 18009KT 9999 BKN020 QNH2977INS BECMG 2013/2014 20015G20KT 9999 FEW060 SCT150 QNH2972INS BECMG 2100/2101 17012KT 9999 FEW030 SCT250 QNH2976INS TX36/2021Z TN23/2008Z